createdAt,value
2023-03-11T00:03:07.055Z,5.66
2023-03-11T00:07:01.075Z,5.68
2023-03-11T00:10:29.411Z,5.74
2023-03-11T00:13:57.655Z,5.82
2023-03-11T00:17:55.235Z,5.96
2023-03-11T00:21:19.001Z,6.08
2023-03-11T00:25:11.871Z,6.20
2023-03-11T00:28:28.327Z,6.30
2023-03-11T00:32:06.155Z,6.35
2023-03-11T00:36:03.275Z,6.35
2023-03-11T00:39:40.431Z,6.28
2023-03-11T00:43:00.797Z,6.24
2023-03-11T00:46:36.892Z,6.22
2023-03-11T00:50:40.169Z,6.21
2023-03-11T00:53:52.211Z,6.16
2023-03-11T00:57:29.733Z,6.10
2023-03-11T01:01:26.867Z,6.03
2023-03-11T01:05:07.344Z,6.05
2023-03-11T01:08:43.488Z,6.13
2023-03-11T01:12:00.381Z,6.22
2023-03-11T01:15:38.384Z,6.33
2023-03-11T01:19:16.556Z,6.41
2023-03-11T01:22:55.051Z,6.48
2023-03-11T01:26:31.429Z,6.53
2023-03-11T01:30:28.901Z,6.55
2023-03-11T01:33:46.582Z,6.57
2023-03-11T01:37:24.560Z,6.60
2023-03-11T01:41:20.808Z,6.64
2023-03-11T01:44:41.808Z,6.71
2023-03-11T01:48:42.180Z,6.77
2023-03-11T01:52:15.836Z,6.86
2023-03-11T01:55:35.674Z,6.91
2023-03-11T01:59:15.775Z,6.92
2023-03-11T02:02:55.619Z,6.88
2023-03-11T02:06:44.925Z,6.85
2023-03-11T02:10:22.508Z,6.85
2023-03-11T02:13:43.629Z,6.83
2023-03-11T02:17:40.155Z,6.85
2023-03-11T02:21:18.402Z,6.87
2023-03-11T02:25:25.262Z,6.85
2023-03-11T02:28:31.204Z,6.79
2023-03-11T02:32:09.899Z,6.75
2023-03-11T02:35:45.026Z,6.75
2023-03-11T02:39:43.921Z,6.77
2023-03-11T02:43:24.940Z,6.82
2023-03-11T02:46:41.433Z,6.82
2023-03-11T02:50:36.676Z,6.77
2023-03-11T02:54:12.208Z,6.75
2023-03-11T02:57:50.405Z,6.68
2023-03-11T03:01:08.665Z,6.53
2023-03-11T03:05:06.215Z,6.36
2023-03-11T03:08:43.056Z,6.24
2023-03-11T03:12:02.698Z,6.17
2023-03-11T03:15:39.429Z,6.10
2023-03-11T03:19:17.195Z,6.05
2023-03-11T03:22:55.176Z,5.97
2023-03-11T03:26:32.719Z,5.94
2023-03-11T03:30:11.153Z,5.96
2023-03-11T03:34:07.567Z,6.02
2023-03-11T03:37:27.286Z,6.07
2023-03-11T03:41:03.515Z,6.08
2023-03-11T03:44:40.834Z,6.08
2023-03-11T03:48:18.644Z,5.98
2023-03-11T03:51:56.409Z,5.87
2023-03-11T03:55:33.983Z,5.77
2023-03-11T03:59:11.557Z,5.70
2023-03-11T04:02:49.417Z,5.65
2023-03-11T04:06:46.052Z,5.62
2023-03-11T04:10:05.281Z,5.59
2023-03-11T04:13:44.668Z,5.55
2023-03-11T04:17:39.017Z,5.52
2023-03-11T04:20:57.676Z,5.45
2023-03-11T04:24:35.442Z,5.35
2023-03-11T04:28:13.346Z,5.30
2023-03-11T04:31:50.661Z,5.26
2023-03-11T04:35:28.476Z,5.22
2023-03-11T04:39:06.509Z,5.17
2023-03-11T04:42:43.867Z,5.12
2023-03-11T04:46:21.802Z,5.06
2023-03-11T04:50:18.729Z,4.99
2023-03-11T04:53:37.096Z,4.95
2023-03-11T04:57:14.636Z,4.94
2023-03-11T05:00:53.081Z,4.95
2023-03-11T05:04:29.892Z,4.80
2023-03-11T05:08:07.805Z,4.63
2023-03-11T05:12:05.082Z,4.51
2023-03-11T05:15:23.217Z,4.42
2023-03-11T05:19:00.565Z,4.29
2023-03-11T05:22:39.002Z,4.26
2023-03-11T05:27:21.619Z,4.12
2023-03-11T05:30:27.997Z,3.99
2023-03-11T05:34:24.447Z,3.95
2023-03-11T05:38:02.372Z,3.93
2023-03-11T05:41:21.101Z,3.88
2023-03-11T05:44:58.792Z,3.83
2023-03-11T05:48:36.427Z,3.81
2023-03-11T05:52:14.424Z,3.77
2023-03-11T05:55:58.981Z,3.63
2023-03-11T05:59:32.441Z,3.38
2023-03-11T06:03:07.090Z,3.16
2023-03-11T06:06:44.940Z,2.95
2023-03-11T06:10:22.432Z,2.72
2023-03-11T06:14:00.326Z,2.51
2023-03-11T06:17:37.880Z,2.39
2023-03-11T06:21:35.278Z,2.20
2023-03-11T06:24:53.208Z,1.99
2023-03-11T06:28:31.756Z,1.82
2023-03-11T06:32:08.546Z,1.74
2023-03-11T06:35:56.861Z,1.73
2023-03-11T06:39:23.903Z,1.67
2023-03-11T06:43:01.768Z,1.66
2023-03-11T06:46:40.332Z,1.65
2023-03-11T06:50:17.525Z,1.65
2023-03-11T06:54:13.578Z,1.63
2023-03-11T06:57:51.375Z,1.65
2023-03-11T07:01:28.969Z,1.68
2023-03-11T07:05:07.027Z,1.68
2023-03-11T07:08:47.304Z,1.67
2023-03-11T07:12:04.805Z,1.61
2023-03-11T07:16:27.403Z,1.66
2023-03-11T07:19:33.993Z,1.72
2023-03-11T07:23:11.650Z,1.73
2023-03-11T07:26:49.645Z,1.76
2023-03-11T07:30:47.898Z,1.79
2023-03-11T07:34:11.478Z,1.80
2023-03-11T07:37:42.366Z,1.77
2023-03-11T07:41:39.254Z,1.77
2023-03-11T07:45:16.870Z,1.70
2023-03-11T07:48:55.571Z,1.66
2023-03-11T07:52:13.371Z,1.54
2023-03-11T07:55:56.436Z,1.44
2023-03-11T07:59:29.193Z,1.36
2023-03-11T08:03:08.922Z,1.34
2023-03-11T08:06:46.893Z,1.29
2023-03-11T08:10:21.800Z,1.28
2023-03-11T08:13:59.817Z,1.18
2023-03-11T08:17:57.254Z,1.18
2023-03-11T08:21:17.949Z,1.13
2023-03-11T08:24:56.729Z,1.07
2023-03-11T08:28:30.067Z,1.06
2023-03-11T08:32:07.980Z,1.02
2023-03-11T08:36:08.638Z,1.05
2023-03-11T08:39:42.145Z,1.05
2023-03-11T08:43:02.185Z,1.08
2023-03-11T08:46:39.403Z,1.12
2023-03-11T08:50:52.968Z,1.08
2023-03-11T08:53:57.446Z,1.03
2023-03-11T08:57:35.033Z,0.98
2023-03-11T09:01:31.703Z,0.92
2023-03-11T09:04:53.392Z,0.88
2023-03-11T09:08:28.386Z,0.84
2023-03-11T09:12:27.196Z,0.77
2023-03-11T09:16:05.272Z,0.76
2023-03-11T09:19:40.074Z,0.75
2023-03-11T09:23:21.647Z,0.77
2023-03-11T09:26:55.640Z,0.79
2023-03-11T09:30:15.110Z,0.84
2023-03-11T09:33:52.876Z,0.80
2023-03-11T09:37:32.005Z,0.78
2023-03-11T09:41:33.063Z,0.77
2023-03-11T09:44:53.997Z,0.73
2023-03-11T09:48:53.540Z,0.73
2023-03-11T09:52:19.240Z,0.75
2023-03-11T09:55:49.348Z,0.74
2023-03-11T09:59:22.361Z,0.73
2023-03-11T10:02:53.487Z,0.67
2023-03-11T10:06:51.054Z,0.67
2023-03-11T10:10:14.847Z,0.67
2023-03-11T10:14:14.183Z,0.65
2023-03-11T10:17:26.729Z,0.58
2023-03-11T10:21:27.765Z,0.64
2023-03-11T10:25:04.622Z,0.67
2023-03-11T10:28:20.806Z,0.64
2023-03-11T10:32:41.257Z,0.64
2023-03-11T10:35:47.167Z,0.63
2023-03-11T10:39:40.996Z,0.60
2023-03-11T10:43:04.020Z,0.56
2023-03-11T10:47:01.834Z,0.49
2023-03-11T10:50:21.139Z,0.48
2023-03-11T10:53:55.430Z,0.45
2023-03-11T10:57:47.264Z,0.42
2023-03-11T11:01:18.663Z,0.43
2023-03-11T11:04:45.300Z,0.30
2023-03-11T11:08:41.622Z,0.24
2023-03-11T11:12:20.398Z,0.27
2023-03-11T11:15:41.717Z,0.21
2023-03-11T11:19:16.420Z,0.20
2023-03-11T11:22:56.416Z,0.19
2023-03-11T11:26:31.296Z,0.08
2023-03-11T11:30:30.288Z,0.09
2023-03-11T11:34:31.103Z,0.08
2023-03-11T11:37:36.875Z,-0.03
2023-03-11T11:41:21.414Z,-0.01
2023-03-11T11:45:28.494Z,-0.03
2023-03-11T11:48:47.288Z,0.02
2023-03-11T11:52:20.354Z,-0.01
2023-03-11T11:56:05.993Z,0.01
2023-03-11T11:59:44.244Z,-0.05
2023-03-11T12:03:38.298Z,-0.05
2023-03-11T12:07:29.293Z,-0.07
2023-03-11T12:10:52.260Z,-0.07
2023-03-11T12:14:21.768Z,-0.06
2023-03-11T12:18:18.662Z,-0.05
2023-03-11T12:21:37.071Z,-0.03
2023-03-11T12:25:22.415Z,-0.04
2023-03-11T12:28:43.379Z,-0.13
2023-03-11T12:32:43.716Z,-0.23
2023-03-11T12:36:03.953Z,-0.24
2023-03-11T12:39:52.214Z,-0.23
2023-03-11T12:43:35.727Z,-0.29
2023-03-11T12:47:12.203Z,-0.30
2023-03-11T12:50:46.482Z,-0.30
2023-03-11T12:54:42.943Z,-0.26
2023-03-11T12:57:55.185Z,-0.30
2023-03-11T13:01:47.988Z,-0.36
2023-03-11T13:05:17.471Z,-0.38
2023-03-11T13:08:54.839Z,-0.43
2023-03-11T13:12:47.945Z,-0.49
2023-03-11T13:16:19.084Z,-0.59
2023-03-11T13:19:37.393Z,-0.62
2023-03-11T13:23:38.354Z,-0.57
2023-03-11T13:27:27.039Z,-0.54
2023-03-11T13:31:03.868Z,-0.51
2023-03-11T13:34:23.553Z,-0.53
2023-03-11T13:38:20.792Z,-0.64
2023-03-11T13:41:33.125Z,-0.68
2023-03-11T13:45:36.661Z,-0.66
2023-03-11T13:49:23.197Z,-0.65
2023-03-11T13:52:30.606Z,-0.60
2023-03-11T13:56:04.550Z,-0.67
2023-03-11T13:59:43.166Z,-0.69
2023-03-11T14:03:25.000Z,-0.71
2023-03-11T14:06:56.979Z,-0.72
2023-03-11T14:11:20.456Z,-0.74
2023-03-11T14:14:53.207Z,-0.81
2023-03-11T14:18:33.876Z,-0.85
2023-03-11T14:21:42.908Z,-0.90
2023-03-11T14:25:24.131Z,-0.96
2023-03-11T14:28:59.066Z,-0.98
2023-03-11T14:32:36.312Z,-1.04
2023-03-11T14:36:14.426Z,-1.02
2023-03-11T14:39:49.261Z,-1.07
2023-03-11T14:43:49.472Z,-1.06
2023-03-11T14:47:33.754Z,-1.03
2023-03-11T14:50:40.560Z,-1.06
2023-03-11T14:54:27.890Z,-1.11
2023-03-11T14:57:57.133Z,-1.06
2023-03-11T15:02:00.306Z,-1.07
2023-03-11T15:05:42.369Z,-1.04
2023-03-11T15:09:14.233Z,-0.96
2023-03-11T15:12:45.309Z,-0.92
2023-03-11T15:16:30.866Z,-0.92
2023-03-11T15:19:41.926Z,-0.92
2023-03-11T15:23:38.365Z,-0.87
2023-03-11T15:27:02.629Z,-0.82
2023-03-11T15:30:34.641Z,-0.80
2023-03-11T15:34:25.523Z,-0.79
2023-03-11T15:38:12.082Z,-0.77
2023-03-11T15:41:59.614Z,-0.75
2023-03-11T15:45:16.404Z,-0.78
2023-03-11T15:48:44.379Z,-0.85
2023-03-11T15:52:39.697Z,-0.87
2023-03-11T15:56:23.667Z,-0.87
2023-03-11T15:59:37.279Z,-0.91
2023-03-11T16:03:13.712Z,-0.91
2023-03-11T16:07:02.966Z,-0.91
2023-03-11T16:10:29.240Z,-0.92
2023-03-11T16:14:10.003Z,-0.88
2023-03-11T16:18:06.972Z,-0.90
2023-03-11T16:21:49.531Z,-0.90
2023-03-11T16:25:28.845Z,-0.96
2023-03-11T16:28:38.427Z,-0.97
2023-03-11T16:32:34.429Z,-1.01
2023-03-11T16:35:53.055Z,-1.01
2023-03-11T16:39:33.227Z,-1.06
2023-03-11T16:43:11.024Z,-1.06
2023-03-11T16:46:46.709Z,-1.12
2023-03-11T16:50:27.853Z,-1.16
2023-03-11T16:54:02.869Z,-1.22
2023-03-11T16:57:43.008Z,-1.24
2023-03-11T17:01:37.842Z,-1.29
2023-03-11T17:04:54.376Z,-1.34
2023-03-11T17:08:53.680Z,-1.36
2023-03-11T17:12:15.416Z,-1.38
2023-03-11T17:16:06.783Z,-1.36
2023-03-11T17:19:31.272Z,-1.37
2023-03-11T17:23:03.093Z,-1.43
2023-03-11T17:26:40.593Z,-1.46
2023-03-11T17:30:46.346Z,-1.39
2023-03-11T17:33:57.311Z,-1.32
2023-03-11T17:37:34.669Z,-1.28
2023-03-11T17:41:30.172Z,-1.27
2023-03-11T17:44:52.041Z,-1.25
2023-03-11T17:48:28.150Z,-1.26
2023-03-11T17:52:04.650Z,-1.26
2023-03-11T17:56:00.661Z,-1.26
2023-03-11T17:59:24.964Z,-1.26
2023-03-11T18:02:58.292Z,-1.29
2023-03-11T18:06:40.246Z,-1.27
2023-03-11T18:10:32.060Z,-1.31
2023-03-11T18:13:51.393Z,-1.32
2023-03-11T18:17:29.408Z,-1.34
2023-03-11T18:21:13.478Z,-1.38
2023-03-11T18:24:43.482Z,-1.38
2023-03-11T18:28:21.246Z,-1.35
2023-03-11T18:32:20.016Z,-1.34
2023-03-11T18:35:36.750Z,-1.35
2023-03-11T18:39:14.153Z,-1.40
2023-03-11T18:42:53.090Z,-1.41
2023-03-11T18:46:54.284Z,-1.38
2023-03-11T18:50:27.912Z,-1.40
2023-03-11T18:54:05.204Z,-1.42
2023-03-11T18:57:27.387Z,-1.45
2023-03-11T19:01:15.714Z,-1.45
2023-03-11T19:04:38.383Z,-1.46
2023-03-11T19:08:34.740Z,-1.48
2023-03-11T19:11:53.496Z,-1.52
2023-03-11T19:15:32.876Z,-1.61
2023-03-11T19:19:11.809Z,-1.69
2023-03-11T19:22:46.313Z,-1.80
2023-03-11T19:26:45.996Z,-1.86
2023-03-11T19:30:02.240Z,-1.90
2023-03-11T19:33:59.134Z,-1.86
2023-03-11T19:37:17.424Z,-1.83
2023-03-11T19:41:01.225Z,-1.81
2023-03-11T19:44:51.713Z,-1.82
2023-03-11T19:48:29.545Z,-1.84
2023-03-11T19:51:50.335Z,-1.82
2023-03-11T19:55:25.709Z,-1.81
2023-03-11T19:59:03.665Z,-1.80
2023-03-11T20:02:41.194Z,-1.77
2023-03-11T20:06:22.487Z,-1.72
2023-03-11T20:09:56.334Z,-1.68
2023-03-11T20:13:35.760Z,-1.66
2023-03-11T20:17:11.979Z,-1.63
2023-03-11T20:20:51.372Z,-1.59
2023-03-11T20:24:28.407Z,-1.55
2023-03-11T20:28:04.686Z,-1.51
2023-03-11T20:32:03.439Z,-1.48
2023-03-11T20:35:21.181Z,-1.46
2023-03-11T20:39:04.439Z,-1.51
2023-03-11T20:42:35.724Z,-1.55
2023-03-11T20:46:13.470Z,-1.57
2023-03-11T20:49:52.292Z,-1.56
2023-03-11T20:53:30.651Z,-1.51
2023-03-11T20:57:24.879Z,-1.48
2023-03-11T21:00:43.950Z,-1.49
2023-03-11T21:04:24.232Z,-1.49
2023-03-11T21:08:18.098Z,-1.50
2023-03-11T21:11:37.004Z,-1.52
2023-03-11T21:15:35.323Z,-1.52
2023-03-11T21:18:54.585Z,-1.51
2023-03-11T21:22:29.835Z,-1.48
2023-03-11T21:26:08.650Z,-1.46
2023-03-11T21:29:45.295Z,-1.48
2023-03-11T21:33:23.152Z,-1.49
2023-03-11T21:37:00.904Z,-1.47
2023-03-11T21:41:12.493Z,-1.50
2023-03-11T21:44:19.631Z,-1.50
2023-03-11T21:47:54.267Z,-1.51
2023-03-11T21:51:31.948Z,-1.54
2023-03-11T21:55:09.654Z,-1.57
2023-03-11T21:58:49.907Z,-1.62
2023-03-11T22:02:44.078Z,-1.63
2023-03-11T22:06:22.007Z,-1.70
2023-03-11T22:09:40.456Z,-1.75
2023-03-11T22:13:19.646Z,-1.79
2023-03-11T22:16:56.243Z,-1.81
2023-03-11T22:20:33.470Z,-1.80
2023-03-11T22:24:11.743Z,-1.80
2023-03-11T22:27:49.211Z,-1.81
2023-03-11T22:31:26.365Z,-1.82
2023-03-11T22:35:04.180Z,-1.84
2023-03-11T22:38:44.217Z,-1.78
2023-03-11T22:42:21.475Z,-1.75
2023-03-11T22:45:57.551Z,-1.72
2023-03-11T22:49:34.799Z,-1.74
2023-03-11T22:53:13.014Z,-1.73
2023-03-11T22:57:10.315Z,-1.72
2023-03-11T23:00:27.685Z,-1.72
2023-03-11T23:04:25.285Z,-1.75
2023-03-11T23:07:43.649Z,-1.78
2023-03-11T23:11:21.714Z,-1.80
2023-03-11T23:15:18.631Z,-1.89
2023-03-11T23:18:37.174Z,-1.97
2023-03-11T23:22:13.742Z,-1.99
2023-03-11T23:25:51.433Z,-1.95
2023-03-11T23:29:29.395Z,-1.93
2023-03-11T23:33:07.086Z,-1.93
2023-03-11T23:37:05.547Z,-1.99
2023-03-11T23:40:22.236Z,-2.07
2023-03-11T23:43:59.850Z,-2.17
2023-03-11T23:47:56.922Z,-2.20
2023-03-11T23:51:15.570Z,-2.21
2023-03-11T23:54:53.302Z,-2.21
2023-03-11T23:58:32.966Z,-2.23
